sensor_id;sensor_type;location;lat;lon;timestamp;P1;durP1;ratioP1;P2;durP2;ratioP2
10100;SDS011;5090;51.258;4.436;2023-07-24T00:02:27;4.82;;;3.20;;
10100;SDS011;5090;51.258;4.436;2023-07-24T00:04:56;3.62;;;2.87;;
10100;SDS011;5090;51.258;4.436;2023-07-24T00:07:26;2.70;;;2.33;;
10100;SDS011;5090;51.258;4.436;2023-07-24T00:09:55;3.28;;;2.60;;
10100;SDS011;5090;51.258;4.436;2023-07-24T00:12:23;2.40;;;2.20;;
10100;SDS011;5090;51.258;4.436;2023-07-24T00:14:52;2.87;;;1.80;;
10100;SDS011;5090;51.258;4.436;2023-07-24T00:17:24;3.78;;;1.67;;
10100;SDS011;5090;51.258;4.436;2023-07-24T00:19:52;3.53;;;2.07;;
10100;SDS011;5090;51.258;4.436;2023-07-24T00:22:25;2.78;;;1.83;;
10100;SDS011;5090;51.258;4.436;2023-07-24T00:24:54;1.40;;;1.30;;
10100;SDS011;5090;51.258;4.436;2023-07-24T00:27:22;2.22;;;1.85;;
10100;SDS011;5090;51.258;4.436;2023-07-24T00:29:50;1.73;;;1.50;;
10100;SDS011;5090;51.258;4.436;2023-07-24T00:32:19;1.55;;;1.45;;
10100;SDS011;5090;51.258;4.436;2023-07-24T00:34:49;2.20;;;1.70;;
10100;SDS011;5090;51.258;4.436;2023-07-24T00:37:17;2.37;;;1.80;;
10100;SDS011;5090;51.258;4.436;2023-07-24T00:39:45;1.97;;;1.40;;
10100;SDS011;5090;51.258;4.436;2023-07-24T00:42:13;1.70;;;1.40;;
10100;SDS011;5090;51.258;4.436;2023-07-24T00:44:41;1.90;;;1.70;;
10100;SDS011;5090;51.258;4.436;2023-07-24T00:47:10;2.53;;;1.60;;
10100;SDS011;5090;51.258;4.436;2023-07-24T00:49:38;2.40;;;1.27;;
10100;SDS011;5090;51.258;4.436;2023-07-24T00:52:06;3.42;;;1.58;;
10100;SDS011;5090;51.258;4.436;2023-07-24T00:54:39;2.40;;;1.83;;
10100;SDS011;5090;51.258;4.436;2023-07-24T00:57:07;2.33;;;1.70;;
10100;SDS011;5090;51.258;4.436;2023-07-24T00:59:36;1.70;;;1.55;;
10100;SDS011;5090;51.258;4.436;2023-07-24T01:02:06;3.00;;;1.60;;
10100;SDS011;5090;51.258;4.436;2023-07-24T01:04:34;2.42;;;1.45;;
10100;SDS011;5090;51.258;4.436;2023-07-24T01:07:02;1.95;;;1.50;;
10100;SDS011;5090;51.258;4.436;2023-07-24T01:09:31;1.80;;;1.50;;
10100;SDS011;5090;51.258;4.436;2023-07-24T01:12:02;2.87;;;1.53;;
10100;SDS011;5090;51.258;4.436;2023-07-24T01:14:31;2.67;;;2.00;;
10100;SDS011;5090;51.258;4.436;2023-07-24T01:16:56;2.03;;;1.67;;
10100;SDS011;5090;51.258;4.436;2023-07-24T01:19:36;2.07;;;1.70;;
10100;SDS011;5090;51.258;4.436;2023-07-24T01:24:52;2.70;;;1.90;;
10100;SDS011;5090;51.258;4.436;2023-07-24T01:27:20;2.20;;;1.70;;
10100;SDS011;5090;51.258;4.436;2023-07-24T01:29:48;3.73;;;1.93;;
10100;SDS011;5090;51.258;4.436;2023-07-24T01:32:17;2.83;;;1.67;;
10100;SDS011;5090;51.258;4.436;2023-07-24T01:34:45;3.17;;;2.00;;
10100;SDS011;5090;51.258;4.436;2023-07-24T01:37:13;2.67;;;1.90;;
10100;SDS011;5090;51.258;4.436;2023-07-24T01:39:41;2.25;;;1.77;;
10100;SDS011;5090;51.258;4.436;2023-07-24T01:42:10;3.63;;;2.10;;
10100;SDS011;5090;51.258;4.436;2023-07-24T01:44:38;3.07;;;2.00;;
10100;SDS011;5090;51.258;4.436;2023-07-24T01:47:06;4.33;;;2.07;;
10100;SDS011;5090;51.258;4.436;2023-07-24T01:49:35;2.80;;;2.08;;
10100;SDS011;5090;51.258;4.436;2023-07-24T01:52:05;2.15;;;1.90;;
10100;SDS011;5090;51.258;4.436;2023-07-24T01:54:34;4.65;;;2.12;;
10100;SDS011;5090;51.258;4.436;2023-07-24T01:57:02;4.97;;;1.98;;
10100;SDS011;5090;51.258;4.436;2023-07-24T01:59:30;4.67;;;2.53;;
10100;SDS011;5090;51.258;4.436;2023-07-24T02:01:59;3.60;;;2.90;;
10100;SDS011;5090;51.258;4.436;2023-07-24T02:04:31;3.40;;;2.40;;
10100;SDS011;5090;51.258;4.436;2023-07-24T02:06:59;2.95;;;2.45;;
10100;SDS011;5090;51.258;4.436;2023-07-24T02:09:28;4.05;;;2.37;;
10100;SDS011;5090;51.258;4.436;2023-07-24T02:11:56;4.83;;;2.53;;
10100;SDS011;5090;51.258;4.436;2023-07-24T02:14:25;4.63;;;2.20;;
10100;SDS011;5090;51.258;4.436;2023-07-24T02:16:57;3.07;;;2.00;;
10100;SDS011;5090;51.258;4.436;2023-07-24T02:19:30;2.30;;;2.00;;
10100;SDS011;5090;51.258;4.436;2023-07-24T02:21:58;2.23;;;2.00;;
10100;SDS011;5090;51.258;4.436;2023-07-24T02:24:27;6.63;;;2.17;;
10100;SDS011;5090;51.258;4.436;2023-07-24T02:26:55;2.43;;;2.23;;
10100;SDS011;5090;51.258;4.436;2023-07-24T02:29:24;2.57;;;2.00;;
10100;SDS011;5090;51.258;4.436;2023-07-24T02:31:56;2.77;;;2.10;;
10100;SDS011;5090;51.258;4.436;2023-07-24T02:34:24;3.67;;;2.50;;
10100;SDS011;5090;51.258;4.436;2023-07-24T02:36:53;4.93;;;2.10;;
10100;SDS011;5090;51.258;4.436;2023-07-24T02:39:21;2.67;;;2.07;;
10100;SDS011;5090;51.258;4.436;2023-07-24T02:41:50;4.73;;;2.43;;
10100;SDS011;5090;51.258;4.436;2023-07-24T02:44:18;3.97;;;2.30;;
10100;SDS011;5090;51.258;4.436;2023-07-24T02:46:50;6.87;;;2.17;;
10100;SDS011;5090;51.258;4.436;2023-07-24T02:49:19;5.12;;;2.30;;
10100;SDS011;5090;51.258;4.436;2023-07-24T02:51:47;3.10;;;2.13;;
10100;SDS011;5090;51.258;4.436;2023-07-24T02:54:15;2.50;;;2.10;;
10100;SDS011;5090;51.258;4.436;2023-07-24T02:56:48;2.60;;;2.20;;
10100;SDS011;5090;51.258;4.436;2023-07-24T02:59:16;3.00;;;2.00;;
10100;SDS011;5090;51.258;4.436;2023-07-24T03:01:44;5.23;;;2.33;;
10100;SDS011;5090;51.258;4.436;2023-07-24T03:04:13;3.53;;;2.20;;
10100;SDS011;5090;51.258;4.436;2023-07-24T03:06:41;3.63;;;2.27;;
10100;SDS011;5090;51.258;4.436;2023-07-24T03:09:13;4.20;;;2.50;;
10100;SDS011;5090;51.258;4.436;2023-07-24T03:11:43;3.57;;;2.93;;
10100;SDS011;5090;51.258;4.436;2023-07-24T03:14:14;3.10;;;2.53;;
10100;SDS011;5090;51.258;4.436;2023-07-24T03:16:45;5.10;;;3.00;;
10100;SDS011;5090;51.258;4.436;2023-07-24T03:19:16;3.95;;;2.90;;
10100;SDS011;5090;51.258;4.436;2023-07-24T03:21:44;6.37;;;3.10;;
10100;SDS011;5090;51.258;4.436;2023-07-24T03:24:13;4.72;;;2.95;;
10100;SDS011;5090;51.258;4.436;2023-07-24T03:26:41;6.37;;;3.20;;
10100;SDS011;5090;51.258;4.436;2023-07-24T03:29:09;4.97;;;3.40;;
10100;SDS011;5090;51.258;4.436;2023-07-24T03:31:37;7.27;;;3.97;;
10100;SDS011;5090;51.258;4.436;2023-07-24T03:34:06;5.27;;;4.30;;
10100;SDS011;5090;51.258;4.436;2023-07-24T03:36:35;8.60;;;5.40;;
10100;SDS011;5090;51.258;4.436;2023-07-24T03:39:03;11.60;;;6.03;;
10100;SDS011;5090;51.258;4.436;2023-07-24T03:41:31;8.23;;;5.83;;
10100;SDS011;5090;51.258;4.436;2023-07-24T03:44:00;7.33;;;5.07;;
10100;SDS011;5090;51.258;4.436;2023-07-24T03:46:28;8.60;;;5.77;;
10100;SDS011;5090;51.258;4.436;2023-07-24T03:48:56;8.77;;;5.93;;
10100;SDS011;5090;51.258;4.436;2023-07-24T03:51:24;8.10;;;6.53;;
10100;SDS011;5090;51.258;4.436;2023-07-24T03:53:53;7.17;;;5.70;;
10100;SDS011;5090;51.258;4.436;2023-07-24T03:56:21;6.97;;;5.57;;
10100;SDS011;5090;51.258;4.436;2023-07-24T03:58:50;8.20;;;5.23;;
10100;SDS011;5090;51.258;4.436;2023-07-24T04:01:22;5.60;;;4.83;;
10100;SDS011;5090;51.258;4.436;2023-07-24T04:03:54;6.80;;;4.07;;
10100;SDS011;5090;51.258;4.436;2023-07-24T04:06:23;5.83;;;3.70;;
10100;SDS011;5090;51.258;4.436;2023-07-24T04:08:51;4.67;;;3.33;;
10100;SDS011;5090;51.258;4.436;2023-07-24T04:11:20;7.30;;;3.87;;
10100;SDS011;5090;51.258;4.436;2023-07-24T04:13:48;5.80;;;3.90;;
10100;SDS011;5090;51.258;4.436;2023-07-24T04:16:17;4.93;;;3.73;;
10100;SDS011;5090;51.258;4.436;2023-07-24T04:18:45;5.97;;;3.67;;
10100;SDS011;5090;51.258;4.436;2023-07-24T04:21:13;5.10;;;3.50;;
10100;SDS011;5090;51.258;4.436;2023-07-24T04:23:45;6.30;;;3.20;;
10100;SDS011;5090;51.258;4.436;2023-07-24T04:26:14;5.87;;;3.50;;
10100;SDS011;5090;51.258;4.436;2023-07-24T04:28:42;4.87;;;3.40;;
10100;SDS011;5090;51.258;4.436;2023-07-24T04:31:10;4.27;;;3.20;;
10100;SDS011;5090;51.258;4.436;2023-07-24T04:33:38;4.33;;;3.50;;
10100;SDS011;5090;51.258;4.436;2023-07-24T04:36:07;4.93;;;3.80;;
10100;SDS011;5090;51.258;4.436;2023-07-24T04:38:35;3.90;;;3.23;;
10100;SDS011;5090;51.258;4.436;2023-07-24T04:41:03;4.63;;;3.47;;
10100;SDS011;5090;51.258;4.436;2023-07-24T04:43:31;4.40;;;3.40;;
10100;SDS011;5090;51.258;4.436;2023-07-24T04:45:59;6.17;;;3.87;;
10100;SDS011;5090;51.258;4.436;2023-07-24T04:48:28;6.73;;;3.70;;
10100;SDS011;5090;51.258;4.436;2023-07-24T04:51:00;5.40;;;4.20;;
10100;SDS011;5090;51.258;4.436;2023-07-24T04:53:29;7.23;;;3.90;;
10100;SDS011;5090;51.258;4.436;2023-07-24T04:55:57;7.67;;;3.83;;
10100;SDS011;5090;51.258;4.436;2023-07-24T04:58:25;6.00;;;3.77;;
10100;SDS011;5090;51.258;4.436;2023-07-24T05:00:56;6.70;;;3.60;;
10100;SDS011;5090;51.258;4.436;2023-07-24T05:03:24;7.37;;;3.87;;
10100;SDS011;5090;51.258;4.436;2023-07-24T05:05:54;7.00;;;3.57;;
10100;SDS011;5090;51.258;4.436;2023-07-24T05:08:28;6.73;;;3.40;;
10100;SDS011;5090;51.258;4.436;2023-07-24T05:11:00;6.63;;;3.93;;
10100;SDS011;5090;51.258;4.436;2023-07-24T05:13:28;4.47;;;3.00;;
10100;SDS011;5090;51.258;4.436;2023-07-24T05:15:58;6.30;;;3.80;;
10100;SDS011;5090;51.258;4.436;2023-07-24T05:18:30;3.80;;;3.20;;
10100;SDS011;5090;51.258;4.436;2023-07-24T05:20:59;3.20;;;2.83;;
10100;SDS011;5090;51.258;4.436;2023-07-24T05:23:27;4.40;;;2.90;;
10100;SDS011;5090;51.258;4.436;2023-07-24T05:25:57;4.87;;;3.00;;
10100;SDS011;5090;51.258;4.436;2023-07-24T05:28:26;5.07;;;3.10;;
10100;SDS011;5090;51.258;4.436;2023-07-24T05:30:54;5.50;;;3.10;;
10100;SDS011;5090;51.258;4.436;2023-07-24T05:33:24;5.20;;;2.67;;
10100;SDS011;5090;51.258;4.436;2023-07-24T05:35:56;3.60;;;2.60;;
10100;SDS011;5090;51.258;4.436;2023-07-24T05:38:22;3.33;;;2.87;;
10100;SDS011;5090;51.258;4.436;2023-07-24T05:40:54;4.97;;;2.80;;
10100;SDS011;5090;51.258;4.436;2023-07-24T05:43:23;3.17;;;2.87;;
10100;SDS011;5090;51.258;4.436;2023-07-24T05:45:52;3.07;;;2.77;;
10100;SDS011;5090;51.258;4.436;2023-07-24T05:48:20;4.03;;;2.67;;
10100;SDS011;5090;51.258;4.436;2023-07-24T05:50:53;4.67;;;3.10;;
10100;SDS011;5090;51.258;4.436;2023-07-24T05:53:21;4.00;;;3.20;;
10100;SDS011;5090;51.258;4.436;2023-07-24T05:58:26;4.57;;;2.90;;
10100;SDS011;5090;51.258;4.436;2023-07-24T06:00:54;5.93;;;3.60;;
10100;SDS011;5090;51.258;4.436;2023-07-24T06:03:27;4.23;;;3.43;;
10100;SDS011;5090;51.258;4.436;2023-07-24T06:05:55;5.30;;;3.20;;
10100;SDS011;5090;51.258;4.436;2023-07-24T06:08:24;3.77;;;3.20;;
10100;SDS011;5090;51.258;4.436;2023-07-24T06:10:52;5.23;;;3.57;;
10100;SDS011;5090;51.258;4.436;2023-07-24T06:13:21;6.83;;;3.73;;
10100;SDS011;5090;51.258;4.436;2023-07-24T06:15:50;6.50;;;3.90;;
10100;SDS011;5090;51.258;4.436;2023-07-24T06:18:18;5.20;;;3.80;;
10100;SDS011;5090;51.258;4.436;2023-07-24T06:20:48;5.10;;;3.60;;
10100;SDS011;5090;51.258;4.436;2023-07-24T06:23:16;6.47;;;4.22;;
10100;SDS011;5090;51.258;4.436;2023-07-24T06:25:46;4.72;;;3.80;;
10100;SDS011;5090;51.258;4.436;2023-07-24T06:28:19;5.30;;;3.87;;
10100;SDS011;5090;51.258;4.436;2023-07-24T06:30:47;5.15;;;3.55;;
10100;SDS011;5090;51.258;4.436;2023-07-24T06:33:15;3.97;;;3.22;;
10100;SDS011;5090;51.258;4.436;2023-07-24T06:35:43;4.30;;;3.03;;
10100;SDS011;5090;51.258;4.436;2023-07-24T06:38:11;3.12;;;2.45;;
10100;SDS011;5090;51.258;4.436;2023-07-24T06:40:41;4.12;;;2.20;;
10100;SDS011;5090;51.258;4.436;2023-07-24T06:43:09;3.53;;;2.20;;
10100;SDS011;5090;51.258;4.436;2023-07-24T06:45:37;3.58;;;2.15;;
10100;SDS011;5090;51.258;4.436;2023-07-24T06:48:06;3.08;;;2.72;;
10100;SDS011;5090;51.258;4.436;2023-07-24T06:50:36;2.35;;;2.15;;
10100;SDS011;5090;51.258;4.436;2023-07-24T06:53:04;4.57;;;2.42;;
10100;SDS011;5090;51.258;4.436;2023-07-24T06:55:32;4.37;;;2.83;;
10100;SDS011;5090;51.258;4.436;2023-07-24T06:58:05;5.35;;;2.90;;
10100;SDS011;5090;51.258;4.436;2023-07-24T07:00:33;4.68;;;2.92;;
10100;SDS011;5090;51.258;4.436;2023-07-24T07:03:01;3.58;;;3.25;;
10100;SDS011;5090;51.258;4.436;2023-07-24T07:05:31;3.60;;;2.95;;
10100;SDS011;5090;51.258;4.436;2023-07-24T07:07:58;4.50;;;3.20;;
10100;SDS011;5090;51.258;4.436;2023-07-24T07:10:26;6.82;;;3.12;;
10100;SDS011;5090;51.258;4.436;2023-07-24T07:12:54;4.40;;;2.70;;
10100;SDS011;5090;51.258;4.436;2023-07-24T07:15:22;3.95;;;3.03;;
10100;SDS011;5090;51.258;4.436;2023-07-24T07:17:51;4.45;;;3.08;;
10100;SDS011;5090;51.258;4.436;2023-07-24T07:20:19;6.25;;;3.40;;
10100;SDS011;5090;51.258;4.436;2023-07-24T07:22:47;3.95;;;3.45;;
10100;SDS011;5090;51.258;4.436;2023-07-24T07:25:17;5.80;;;3.40;;
10100;SDS011;5090;51.258;4.436;2023-07-24T07:27:45;4.18;;;3.25;;
10100;SDS011;5090;51.258;4.436;2023-07-24T07:30:13;8.10;;;3.65;;
10100;SDS011;5090;51.258;4.436;2023-07-24T07:32:42;4.30;;;3.22;;
10100;SDS011;5090;51.258;4.436;2023-07-24T07:35:10;4.47;;;3.72;;
10100;SDS011;5090;51.258;4.436;2023-07-24T07:37:38;3.33;;;3.03;;
10100;SDS011;5090;51.258;4.436;2023-07-24T07:40:06;5.62;;;3.70;;
10100;SDS011;5090;51.258;4.436;2023-07-24T07:42:35;4.87;;;3.87;;
10100;SDS011;5090;51.258;4.436;2023-07-24T07:45:06;4.25;;;3.47;;
10100;SDS011;5090;51.258;4.436;2023-07-24T07:47:39;4.62;;;3.70;;
10100;SDS011;5090;51.258;4.436;2023-07-24T07:50:09;5.60;;;3.87;;
10100;SDS011;5090;51.258;4.436;2023-07-24T07:52:38;8.57;;;4.53;;
10100;SDS011;5090;51.258;4.436;2023-07-24T07:55:06;6.43;;;3.62;;
10100;SDS011;5090;51.258;4.436;2023-07-24T07:57:35;4.62;;;4.10;;
10100;SDS011;5090;51.258;4.436;2023-07-24T08:00:03;6.15;;;4.10;;
10100;SDS011;5090;51.258;4.436;2023-07-24T08:02:31;8.10;;;4.40;;
10100;SDS011;5090;51.258;4.436;2023-07-24T08:04:59;4.50;;;3.90;;
10100;SDS011;5090;51.258;4.436;2023-07-24T08:07:28;5.77;;;3.87;;
10100;SDS011;5090;51.258;4.436;2023-07-24T08:09:56;4.60;;;4.00;;
10100;SDS011;5090;51.258;4.436;2023-07-24T08:12:24;6.27;;;3.93;;
10100;SDS011;5090;51.258;4.436;2023-07-24T08:14:52;8.20;;;4.40;;
10100;SDS011;5090;51.258;4.436;2023-07-24T08:17:20;4.47;;;4.05;;
10100;SDS011;5090;51.258;4.436;2023-07-24T08:19:49;5.55;;;3.78;;
10100;SDS011;5090;51.258;4.436;2023-07-24T08:22:17;4.85;;;3.95;;
10100;SDS011;5090;51.258;4.436;2023-07-24T08:24:46;6.05;;;4.00;;
10100;SDS011;5090;51.258;4.436;2023-07-24T08:27:14;4.40;;;4.00;;
10100;SDS011;5090;51.258;4.436;2023-07-24T08:29:42;5.68;;;4.20;;
10100;SDS011;5090;51.258;4.436;2023-07-24T08:32:11;5.07;;;4.00;;
10100;SDS011;5090;51.258;4.436;2023-07-24T08:34:39;4.10;;;3.70;;
10100;SDS011;5090;51.258;4.436;2023-07-24T08:37:07;5.50;;;3.20;;
10100;SDS011;5090;51.258;4.436;2023-07-24T08:39:35;4.47;;;3.83;;
10100;SDS011;5090;51.258;4.436;2023-07-24T08:42:09;4.55;;;3.62;;
10100;SDS011;5090;51.258;4.436;2023-07-24T08:44:37;4.93;;;3.53;;
10100;SDS011;5090;51.258;4.436;2023-07-24T08:47:10;4.30;;;3.90;;
10100;SDS011;5090;51.258;4.436;2023-07-24T08:49:38;5.15;;;3.55;;
10100;SDS011;5090;51.258;4.436;2023-07-24T08:52:08;4.22;;;3.78;;
10100;SDS011;5090;51.258;4.436;2023-07-24T08:54:35;3.37;;;3.03;;
10100;SDS011;5090;51.258;4.436;2023-07-24T08:57:06;3.90;;;3.22;;
10100;SDS011;5090;51.258;4.436;2023-07-24T08:59:33;3.25;;;2.90;;
10100;SDS011;5090;51.258;4.436;2023-07-24T09:02:02;4.37;;;3.08;;
10100;SDS011;5090;51.258;4.436;2023-07-24T09:04:30;3.47;;;3.17;;
10100;SDS011;5090;51.258;4.436;2023-07-24T09:06:58;4.07;;;3.20;;
10100;SDS011;5090;51.258;4.436;2023-07-24T09:09:29;3.78;;;3.10;;
10100;SDS011;5090;51.258;4.436;2023-07-24T09:11:55;4.50;;;3.28;;
10100;SDS011;5090;51.258;4.436;2023-07-24T09:14:28;4.00;;;3.22;;
10100;SDS011;5090;51.258;4.436;2023-07-24T09:19:30;5.07;;;3.83;;
10100;SDS011;5090;51.258;4.436;2023-07-24T09:24:36;3.72;;;2.90;;
10100;SDS011;5090;51.258;4.436;2023-07-24T09:27:05;4.10;;;2.97;;
10100;SDS011;5090;51.258;4.436;2023-07-24T09:29:33;4.47;;;3.47;;
10100;SDS011;5090;51.258;4.436;2023-07-24T09:32:02;4.25;;;3.45;;
10100;SDS011;5090;51.258;4.436;2023-07-24T09:34:31;4.35;;;3.80;;
10100;SDS011;5090;51.258;4.436;2023-07-24T09:37:01;6.97;;;4.40;;
10100;SDS011;5090;51.258;4.436;2023-07-24T09:39:29;7.32;;;4.45;;
10100;SDS011;5090;51.258;4.436;2023-07-24T09:42:03;5.37;;;4.10;;
10100;SDS011;5090;51.258;4.436;2023-07-24T09:44:31;4.85;;;3.70;;
10100;SDS011;5090;51.258;4.436;2023-07-24T09:47:01;6.22;;;3.62;;
10100;SDS011;5090;51.258;4.436;2023-07-24T09:49:28;4.22;;;3.83;;
10100;SDS011;5090;51.258;4.436;2023-07-24T09:51:57;5.72;;;3.80;;
10100;SDS011;5090;51.258;4.436;2023-07-24T09:54:25;6.22;;;4.28;;
10100;SDS011;5090;51.258;4.436;2023-07-24T09:56:54;5.47;;;3.67;;
10100;SDS011;5090;51.258;4.436;2023-07-24T09:59:22;5.43;;;3.92;;
10100;SDS011;5090;51.258;4.436;2023-07-24T10:01:51;8.52;;;4.10;;
10100;SDS011;5090;51.258;4.436;2023-07-24T10:04:20;5.40;;;4.82;;
10100;SDS011;5090;51.258;4.436;2023-07-24T10:06:48;6.80;;;5.10;;
10100;SDS011;5090;51.258;4.436;2023-07-24T10:09:16;5.95;;;4.90;;
10100;SDS011;5090;51.258;4.436;2023-07-24T10:11:45;6.72;;;5.03;;
10100;SDS011;5090;51.258;4.436;2023-07-24T10:14:13;4.95;;;4.45;;
10100;SDS011;5090;51.258;4.436;2023-07-24T10:16:41;7.32;;;4.50;;
10100;SDS011;5090;51.258;4.436;2023-07-24T10:19:14;5.07;;;4.20;;
10100;SDS011;5090;51.258;4.436;2023-07-24T10:21:46;8.52;;;4.45;;
10100;SDS011;5090;51.258;4.436;2023-07-24T10:24:14;5.45;;;4.25;;
10100;SDS011;5090;51.258;4.436;2023-07-24T10:26:42;5.93;;;4.82;;
10100;SDS011;5090;51.258;4.436;2023-07-24T10:29:14;4.72;;;4.07;;
10100;SDS011;5090;51.258;4.436;2023-07-24T10:31:52;4.18;;;3.75;;
10100;SDS011;5090;51.258;4.436;2023-07-24T10:34:15;5.75;;;4.30;;
10100;SDS011;5090;51.258;4.436;2023-07-24T10:36:43;5.47;;;3.85;;
10100;SDS011;5090;51.258;4.436;2023-07-24T10:39:13;6.47;;;3.87;;
10100;SDS011;5090;51.258;4.436;2023-07-24T10:41:40;3.75;;;3.17;;
10100;SDS011;5090;51.258;4.436;2023-07-24T10:44:08;6.62;;;3.65;;
10100;SDS011;5090;51.258;4.436;2023-07-24T10:46:38;5.60;;;3.67;;
10100;SDS011;5090;51.258;4.436;2023-07-24T10:49:05;5.05;;;3.97;;
10100;SDS011;5090;51.258;4.436;2023-07-24T10:51:33;3.83;;;3.20;;
10100;SDS011;5090;51.258;4.436;2023-07-24T10:54:03;3.95;;;3.55;;
10100;SDS011;5090;51.258;4.436;2023-07-24T10:56:31;5.75;;;3.83;;
10100;SDS011;5090;51.258;4.436;2023-07-24T10:59:05;4.80;;;3.50;;
10100;SDS011;5090;51.258;4.436;2023-07-24T11:01:33;4.60;;;3.25;;
10100;SDS011;5090;51.258;4.436;2023-07-24T11:04:01;5.95;;;3.90;;
10100;SDS011;5090;51.258;4.436;2023-07-24T11:06:30;4.43;;;3.72;;
10100;SDS011;5090;51.258;4.436;2023-07-24T11:08:59;8.80;;;4.20;;
10100;SDS011;5090;51.258;4.436;2023-07-24T11:11:31;4.60;;;3.78;;
10100;SDS011;5090;51.258;4.436;2023-07-24T11:14:00;6.18;;;3.70;;
10100;SDS011;5090;51.258;4.436;2023-07-24T11:16:28;5.95;;;3.62;;
10100;SDS011;5090;51.258;4.436;2023-07-24T11:18:58;7.05;;;3.50;;
10100;SDS011;5090;51.258;4.436;2023-07-24T11:41:51;5.28;;;4.03;;
10100;SDS011;5090;51.258;4.436;2023-07-24T11:44:25;5.28;;;3.65;;
10100;SDS011;5090;51.258;4.436;2023-07-24T11:46:59;5.53;;;3.58;;
10100;SDS011;5090;51.258;4.436;2023-07-24T11:49:21;4.32;;;3.92;;
10100;SDS011;5090;51.258;4.436;2023-07-24T11:51:49;4.43;;;3.92;;
10100;SDS011;5090;51.258;4.436;2023-07-24T11:54:17;6.00;;;4.32;;
10100;SDS011;5090;51.258;4.436;2023-07-24T11:56:46;6.75;;;4.55;;
10100;SDS011;5090;51.258;4.436;2023-07-24T11:59:15;5.78;;;4.85;;
10100;SDS011;5090;51.258;4.436;2023-07-24T12:01:46;6.40;;;4.80;;
10100;SDS011;5090;51.258;4.436;2023-07-24T12:04:14;8.50;;;4.90;;
10100;SDS011;5090;51.258;4.436;2023-07-24T12:06:42;5.40;;;4.28;;
10100;SDS011;5090;51.258;4.436;2023-07-24T12:09:14;5.00;;;3.97;;
10100;SDS011;5090;51.258;4.436;2023-07-24T12:11:43;5.45;;;4.22;;
10100;SDS011;5090;51.258;4.436;2023-07-24T12:14:11;4.75;;;3.92;;
10100;SDS011;5090;51.258;4.436;2023-07-24T12:16:39;6.00;;;4.25;;
10100;SDS011;5090;51.258;4.436;2023-07-24T12:19:07;5.50;;;3.90;;
10100;SDS011;5090;51.258;4.436;2023-07-24T12:21:35;6.65;;;4.05;;
10100;SDS011;5090;51.258;4.436;2023-07-24T12:24:04;5.10;;;3.75;;
10100;SDS011;5090;51.258;4.436;2023-07-24T12:26:32;7.43;;;4.70;;
10100;SDS011;5090;51.258;4.436;2023-07-24T12:29:00;6.07;;;4.72;;
10100;SDS011;5090;51.258;4.436;2023-07-24T12:31:29;9.23;;;5.53;;
10100;SDS011;5090;51.258;4.436;2023-07-24T12:33:57;7.37;;;5.90;;
10100;SDS011;5090;51.258;4.436;2023-07-24T12:36:25;9.98;;;5.85;;
10100;SDS011;5090;51.258;4.436;2023-07-24T12:38:54;10.23;;;6.00;;
10100;SDS011;5090;51.258;4.436;2023-07-24T12:41:23;7.18;;;5.28;;
10100;SDS011;5090;51.258;4.436;2023-07-24T12:43:51;7.28;;;5.20;;
10100;SDS011;5090;51.258;4.436;2023-07-24T12:46:19;8.25;;;5.18;;
10100;SDS011;5090;51.258;4.436;2023-07-24T12:48:47;11.38;;;5.25;;
10100;SDS011;5090;51.258;4.436;2023-07-24T12:51:16;7.65;;;4.78;;
10100;SDS011;5090;51.258;4.436;2023-07-24T12:53:44;6.72;;;4.43;;
10100;SDS011;5090;51.258;4.436;2023-07-24T12:56:13;6.95;;;5.15;;
10100;SDS011;5090;51.258;4.436;2023-07-24T12:58:41;8.32;;;4.60;;
10100;SDS011;5090;51.258;4.436;2023-07-24T13:01:09;6.82;;;5.15;;
10100;SDS011;5090;51.258;4.436;2023-07-24T13:03:38;7.82;;;4.53;;
10100;SDS011;5090;51.258;4.436;2023-07-24T13:06:06;8.32;;;5.43;;
10100;SDS011;5090;51.258;4.436;2023-07-24T13:08:35;7.32;;;4.70;;
10100;SDS011;5090;51.258;4.436;2023-07-24T13:11:03;8.75;;;4.47;;
10100;SDS011;5090;51.258;4.436;2023-07-24T13:13:32;9.90;;;5.53;;
10100;SDS011;5090;51.258;4.436;2023-07-24T13:16:01;7.45;;;5.10;;
10100;SDS011;5090;51.258;4.436;2023-07-24T13:18:30;6.10;;;5.22;;
10100;SDS011;5090;51.258;4.436;2023-07-24T13:20:59;9.68;;;6.15;;
10100;SDS011;5090;51.258;4.436;2023-07-24T13:23:27;7.35;;;5.07;;
10100;SDS011;5090;51.258;4.436;2023-07-24T13:25:56;5.78;;;4.70;;
10100;SDS011;5090;51.258;4.436;2023-07-24T13:28:25;10.00;;;6.47;;
10100;SDS011;5090;51.258;4.436;2023-07-24T13:30:54;10.25;;;6.15;;
10100;SDS011;5090;51.258;4.436;2023-07-24T13:33:21;9.50;;;6.72;;
10100;SDS011;5090;51.258;4.436;2023-07-24T13:35:50;11.43;;;6.60;;
10100;SDS011;5090;51.258;4.436;2023-07-24T13:38:19;9.25;;;5.80;;
10100;SDS011;5090;51.258;4.436;2023-07-24T13:40:48;7.68;;;5.68;;
10100;SDS011;5090;51.258;4.436;2023-07-24T13:43:16;7.25;;;6.03;;
10100;SDS011;5090;51.258;4.436;2023-07-24T13:45:44;9.38;;;6.55;;
10100;SDS011;5090;51.258;4.436;2023-07-24T13:48:16;8.27;;;5.95;;
10100;SDS011;5090;51.258;4.436;2023-07-24T13:50:45;9.50;;;6.28;;
10100;SDS011;5090;51.258;4.436;2023-07-24T13:53:13;8.63;;;6.15;;
10100;SDS011;5090;51.258;4.436;2023-07-24T13:55:41;8.57;;;6.45;;
10100;SDS011;5090;51.258;4.436;2023-07-24T13:58:09;8.45;;;6.32;;
10100;SDS011;5090;51.258;4.436;2023-07-24T14:00:38;8.98;;;6.72;;
10100;SDS011;5090;51.258;4.436;2023-07-24T14:03:07;8.93;;;7.10;;
10100;SDS011;5090;51.258;4.436;2023-07-24T14:05:35;12.02;;;7.10;;
10100;SDS011;5090;51.258;4.436;2023-07-24T14:08:04;12.57;;;7.15;;
10100;SDS011;5090;51.258;4.436;2023-07-24T14:10:33;10.30;;;8.00;;
10100;SDS011;5090;51.258;4.436;2023-07-24T14:13:05;12.30;;;7.87;;
10100;SDS011;5090;51.258;4.436;2023-07-24T14:15:35;10.98;;;7.75;;
10100;SDS011;5090;51.258;4.436;2023-07-24T14:18:03;12.77;;;8.43;;
10100;SDS011;5090;51.258;4.436;2023-07-24T14:20:31;13.02;;;8.57;;
10100;SDS011;5090;51.258;4.436;2023-07-24T14:23:00;12.90;;;8.90;;
10100;SDS011;5090;51.258;4.436;2023-07-24T14:25:28;13.30;;;8.52;;
10100;SDS011;5090;51.258;4.436;2023-07-24T14:27:57;13.05;;;9.45;;
10100;SDS011;5090;51.258;4.436;2023-07-24T14:30:25;12.52;;;9.02;;
10100;SDS011;5090;51.258;4.436;2023-07-24T14:32:53;8.90;;;7.57;;
10100;SDS011;5090;51.258;4.436;2023-07-24T14:35:21;13.45;;;7.68;;
10100;SDS011;5090;51.258;4.436;2023-07-24T14:37:50;9.93;;;6.80;;
10100;SDS011;5090;51.258;4.436;2023-07-24T14:40:18;10.32;;;6.65;;
10100;SDS011;5090;51.258;4.436;2023-07-24T14:42:46;11.95;;;8.00;;
10100;SDS011;5090;51.258;4.436;2023-07-24T14:45:14;12.25;;;7.87;;
10100;SDS011;5090;51.258;4.436;2023-07-24T14:47:42;11.25;;;7.37;;
10100;SDS011;5090;51.258;4.436;2023-07-24T14:50:11;13.25;;;7.10;;
10100;SDS011;5090;51.258;4.436;2023-07-24T14:52:39;9.18;;;6.95;;
10100;SDS011;5090;51.258;4.436;2023-07-24T14:55:07;8.07;;;6.60;;
10100;SDS011;5090;51.258;4.436;2023-07-24T14:57:36;8.23;;;6.20;;
10100;SDS011;5090;51.258;4.436;2023-07-24T15:00:05;10.95;;;6.75;;
10100;SDS011;5090;51.258;4.436;2023-07-24T15:02:33;7.97;;;6.40;;
10100;SDS011;5090;51.258;4.436;2023-07-24T15:05:02;10.98;;;6.03;;
10100;SDS011;5090;51.258;4.436;2023-07-24T15:07:30;7.25;;;5.45;;
10100;SDS011;5090;51.258;4.436;2023-07-24T15:09:58;12.27;;;5.72;;
10100;SDS011;5090;51.258;4.436;2023-07-24T15:12:26;6.15;;;4.00;;
10100;SDS011;5090;51.258;4.436;2023-07-24T15:14:55;8.32;;;3.00;;
10100;SDS011;5090;51.258;4.436;2023-07-24T15:17:23;5.85;;;2.70;;
10100;SDS011;5090;51.258;4.436;2023-07-24T15:19:51;5.68;;;2.62;;
10100;SDS011;5090;51.258;4.436;2023-07-24T15:22:19;6.45;;;3.15;;
10100;SDS011;5090;51.258;4.436;2023-07-24T15:24:48;3.87;;;2.42;;
10100;SDS011;5090;51.258;4.436;2023-07-24T15:27:16;6.25;;;1.92;;
10100;SDS011;5090;51.258;4.436;2023-07-24T15:29:44;4.60;;;1.62;;
10100;SDS011;5090;51.258;4.436;2023-07-24T15:32:12;3.15;;;1.33;;
10100;SDS011;5090;51.258;4.436;2023-07-24T15:34:41;3.65;;;1.50;;
10100;SDS011;5090;51.258;4.436;2023-07-24T15:37:09;3.22;;;1.50;;
10100;SDS011;5090;51.258;4.436;2023-07-24T15:39:39;4.82;;;1.60;;
10100;SDS011;5090;51.258;4.436;2023-07-24T15:42:08;5.65;;;1.45;;